sensor_id;sensor_type;location;lat;lon;timestamp;temperature;humidity
14517;DHT22;7344;50.864;4.362;2023-05-07T00:01:03;17.10;53.70
14517;DHT22;7344;50.864;4.362;2023-05-07T00:03:31;17.10;55.80
14517;DHT22;7344;50.864;4.362;2023-05-07T00:05:56;17.00;56.20
14517;DHT22;7344;50.864;4.362;2023-05-07T00:08:22;17.10;55.80
14517;DHT22;7344;50.864;4.362;2023-05-07T00:10:48;17.10;52.90
14517;DHT22;7344;50.864;4.362;2023-05-07T00:13:13;17.10;54.70
14517;DHT22;7344;50.864;4.362;2023-05-07T00:15:39;17.00;51.10
14517;DHT22;7344;50.864;4.362;2023-05-07T00:18:04;17.10;52.50
14517;DHT22;7344;50.864;4.362;2023-05-07T00:20:30;17.10;52.00
14517;DHT22;7344;50.864;4.362;2023-05-07T00:22:56;17.10;51.80
14517;DHT22;7344;50.864;4.362;2023-05-07T00:25:21;17.00;50.80
14517;DHT22;7344;50.864;4.362;2023-05-07T00:27:47;17.10;50.90
14517;DHT22;7344;50.864;4.362;2023-05-07T00:30:13;17.20;51.20
14517;DHT22;7344;50.864;4.362;2023-05-07T00:32:38;17.20;46.10
14517;DHT22;7344;50.864;4.362;2023-05-07T00:35:05;17.20;46.90
14517;DHT22;7344;50.864;4.362;2023-05-07T00:37:31;17.30;41.90
14517;DHT22;7344;50.864;4.362;2023-05-07T00:39:57;17.30;35.00
14517;DHT22;7344;50.864;4.362;2023-05-07T00:42:22;17.30;33.30
14517;DHT22;7344;50.864;4.362;2023-05-07T00:44:49;17.20;32.70
14517;DHT22;7344;50.864;4.362;2023-05-07T00:47:16;17.20;36.90
14517;DHT22;7344;50.864;4.362;2023-05-07T00:49:43;17.20;36.10
14517;DHT22;7344;50.864;4.362;2023-05-07T00:52:14;17.10;38.40
14517;DHT22;7344;50.864;4.362;2023-05-07T00:54:41;17.10;38.80
14517;DHT22;7344;50.864;4.362;2023-05-07T00:57:09;17.20;38.00
14517;DHT22;7344;50.864;4.362;2023-05-07T00:59:36;17.20;33.30
14517;DHT22;7344;50.864;4.362;2023-05-07T01:02:02;17.10;38.90
14517;DHT22;7344;50.864;4.362;2023-05-07T01:04:28;17.00;39.00
14517;DHT22;7344;50.864;4.362;2023-05-07T01:06:55;17.00;40.60
14517;DHT22;7344;50.864;4.362;2023-05-07T01:09:23;17.00;37.40
14517;DHT22;7344;50.864;4.362;2023-05-07T01:11:49;17.00;38.30
14517;DHT22;7344;50.864;4.362;2023-05-07T01:14:16;17.00;39.00
14517;DHT22;7344;50.864;4.362;2023-05-07T01:16:42;16.90;36.20
14517;DHT22;7344;50.864;4.362;2023-05-07T01:19:08;16.90;36.00
14517;DHT22;7344;50.864;4.362;2023-05-07T01:21:37;17.00;38.50
14517;DHT22;7344;50.864;4.362;2023-05-07T01:24:04;16.90;38.10
14517;DHT22;7344;50.864;4.362;2023-05-07T01:26:30;16.90;36.60
14517;DHT22;7344;50.864;4.362;2023-05-07T01:28:55;16.90;37.50
14517;DHT22;7344;50.864;4.362;2023-05-07T01:31:22;16.80;36.70
14517;DHT22;7344;50.864;4.362;2023-05-07T01:33:50;16.80;38.60
14517;DHT22;7344;50.864;4.362;2023-05-07T01:36:18;16.70;39.30
14517;DHT22;7344;50.864;4.362;2023-05-07T01:38:45;16.70;39.10
14517;DHT22;7344;50.864;4.362;2023-05-07T01:41:12;16.70;38.80
14517;DHT22;7344;50.864;4.362;2023-05-07T01:43:38;16.70;37.70
14517;DHT22;7344;50.864;4.362;2023-05-07T01:46:05;16.80;34.90
14517;DHT22;7344;50.864;4.362;2023-05-07T01:48:32;16.70;33.60
14517;DHT22;7344;50.864;4.362;2023-05-07T01:50:58;16.70;32.20
14517;DHT22;7344;50.864;4.362;2023-05-07T01:53:27;16.80;34.40
14517;DHT22;7344;50.864;4.362;2023-05-07T01:55:53;16.80;33.30
14517;DHT22;7344;50.864;4.362;2023-05-07T01:58:18;16.80;31.50
14517;DHT22;7344;50.864;4.362;2023-05-07T02:00:44;16.80;29.20
14517;DHT22;7344;50.864;4.362;2023-05-07T02:03:10;16.90;26.00
14517;DHT22;7344;50.864;4.362;2023-05-07T02:05:35;16.90;21.60
14517;DHT22;7344;50.864;4.362;2023-05-07T02:08:01;16.90;19.80
14517;DHT22;7344;50.864;4.362;2023-05-07T02:10:26;17.00;16.50
14517;DHT22;7344;50.864;4.362;2023-05-07T02:12:52;16.90;8.90
14517;DHT22;7344;50.864;4.362;2023-05-07T02:15:18;17.00;8.60
14517;DHT22;7344;50.864;4.362;2023-05-07T02:18:04;17.00;2.00
14517;DHT22;7344;50.864;4.362;2023-05-07T02:20:30;17.00;1.90
14517;DHT22;7344;50.864;4.362;2023-05-07T02:22:55;17.00;2.40
14517;DHT22;7344;50.864;4.362;2023-05-07T02:25:21;17.00;2.30
14517;DHT22;7344;50.864;4.362;2023-05-07T02:27:47;17.00;1.00
14517;DHT22;7344;50.864;4.362;2023-05-07T02:30:13;17.10;1.00
14517;DHT22;7344;50.864;4.362;2023-05-07T02:32:38;17.00;6.70
14517;DHT22;7344;50.864;4.362;2023-05-07T02:35:05;16.90;14.00
14517;DHT22;7344;50.864;4.362;2023-05-07T02:37:31;16.70;23.30
14517;DHT22;7344;50.864;4.362;2023-05-07T02:39:56;16.60;25.10
14517;DHT22;7344;50.864;4.362;2023-05-07T02:42:22;16.70;23.80
14517;DHT22;7344;50.864;4.362;2023-05-07T02:44:47;16.70;20.50
14517;DHT22;7344;50.864;4.362;2023-05-07T02:47:14;16.60;27.00
14517;DHT22;7344;50.864;4.362;2023-05-07T02:49:40;16.40;42.40
14517;DHT22;7344;50.864;4.362;2023-05-07T02:52:06;16.30;50.60
14517;DHT22;7344;50.864;4.362;2023-05-07T02:54:32;16.20;54.50
14517;DHT22;7344;50.864;4.362;2023-05-07T02:56:58;16.20;61.10
14517;DHT22;7344;50.864;4.362;2023-05-07T02:59:24;16.10;67.40
14517;DHT22;7344;50.864;4.362;2023-05-07T03:01:51;16.10;59.90
14517;DHT22;7344;50.864;4.362;2023-05-07T03:04:17;16.30;56.10
14517;DHT22;7344;50.864;4.362;2023-05-07T03:06:43;16.30;49.50
14517;DHT22;7344;50.864;4.362;2023-05-07T03:09:08;16.40;50.10
14517;DHT22;7344;50.864;4.362;2023-05-07T03:11:34;16.50;52.70
14517;DHT22;7344;50.864;4.362;2023-05-07T03:14:01;16.60;49.20
14517;DHT22;7344;50.864;4.362;2023-05-07T03:16:26;16.70;45.70
14517;DHT22;7344;50.864;4.362;2023-05-07T03:18:52;16.80;41.50
14517;DHT22;7344;50.864;4.362;2023-05-07T03:21:18;16.70;49.00
14517;DHT22;7344;50.864;4.362;2023-05-07T03:23:43;16.70;55.80
14517;DHT22;7344;50.864;4.362;2023-05-07T03:26:09;16.70;60.30
14517;DHT22;7344;50.864;4.362;2023-05-07T03:28:34;16.60;72.80
14517;DHT22;7344;50.864;4.362;2023-05-07T03:31:00;16.50;85.20
14517;DHT22;7344;50.864;4.362;2023-05-07T03:33:26;16.40;87.70
14517;DHT22;7344;50.864;4.362;2023-05-07T03:35:52;16.40;89.10
14517;DHT22;7344;50.864;4.362;2023-05-07T03:38:18;16.60;71.30
14517;DHT22;7344;50.864;4.362;2023-05-07T03:40:44;16.70;53.40
14517;DHT22;7344;50.864;4.362;2023-05-07T03:43:10;16.80;46.10
14517;DHT22;7344;50.864;4.362;2023-05-07T03:45:35;16.90;42.10
14517;DHT22;7344;50.864;4.362;2023-05-07T03:48:01;17.00;34.30
14517;DHT22;7344;50.864;4.362;2023-05-07T03:50:26;17.10;28.60
14517;DHT22;7344;50.864;4.362;2023-05-07T03:52:52;17.00;22.30
14517;DHT22;7344;50.864;4.362;2023-05-07T03:55:18;16.90;21.40
14517;DHT22;7344;50.864;4.362;2023-05-07T03:57:43;17.00;25.30
14517;DHT22;7344;50.864;4.362;2023-05-07T04:00:09;17.00;20.90
14517;DHT22;7344;50.864;4.362;2023-05-07T04:02:35;16.90;28.10
14517;DHT22;7344;50.864;4.362;2023-05-07T04:05:01;16.70;37.00
14517;DHT22;7344;50.864;4.362;2023-05-07T04:07:27;16.60;50.60
14517;DHT22;7344;50.864;4.362;2023-05-07T04:09:52;16.50;56.20
14517;DHT22;7344;50.864;4.362;2023-05-07T04:12:18;16.40;59.10
14517;DHT22;7344;50.864;4.362;2023-05-07T04:14:44;16.40;67.10
14517;DHT22;7344;50.864;4.362;2023-05-07T04:17:13;16.30;82.60
14517;DHT22;7344;50.864;4.362;2023-05-07T04:19:38;16.30;86.50
14517;DHT22;7344;50.864;4.362;2023-05-07T04:22:04;16.40;89.40
14517;DHT22;7344;50.864;4.362;2023-05-07T04:24:32;16.40;85.60
14517;DHT22;7344;50.864;4.362;2023-05-07T04:26:58;16.50;85.90
14517;DHT22;7344;50.864;4.362;2023-05-07T04:29:24;16.50;83.20
14517;DHT22;7344;50.864;4.362;2023-05-07T04:31:49;16.60;85.20
14517;DHT22;7344;50.864;4.362;2023-05-07T04:34:15;16.80;77.00
14517;DHT22;7344;50.864;4.362;2023-05-07T04:36:42;16.90;66.80
14517;DHT22;7344;50.864;4.362;2023-05-07T04:39:07;17.00;63.10
14517;DHT22;7344;50.864;4.362;2023-05-07T04:41:35;17.00;68.90
14517;DHT22;7344;50.864;4.362;2023-05-07T04:44:01;17.00;68.50
14517;DHT22;7344;50.864;4.362;2023-05-07T04:46:29;17.00;72.60
14517;DHT22;7344;50.864;4.362;2023-05-07T04:48:55;17.00;68.60
14517;DHT22;7344;50.864;4.362;2023-05-07T04:51:21;17.20;69.00
14517;DHT22;7344;50.864;4.362;2023-05-07T04:53:47;17.40;60.30
14517;DHT22;7344;50.864;4.362;2023-05-07T04:56:12;17.50;53.80
14517;DHT22;7344;50.864;4.362;2023-05-07T04:58:38;17.70;51.00
14517;DHT22;7344;50.864;4.362;2023-05-07T05:01:04;17.80;44.00
14517;DHT22;7344;50.864;4.362;2023-05-07T05:03:30;17.80;42.90
14517;DHT22;7344;50.864;4.362;2023-05-07T05:05:55;17.80;43.80
14517;DHT22;7344;50.864;4.362;2023-05-07T05:08:22;17.80;42.20
14517;DHT22;7344;50.864;4.362;2023-05-07T05:10:48;17.60;45.40
14517;DHT22;7344;50.864;4.362;2023-05-07T05:13:15;17.60;51.00
14517;DHT22;7344;50.864;4.362;2023-05-07T05:15:40;17.40;58.60
14517;DHT22;7344;50.864;4.362;2023-05-07T05:18:06;17.30;67.90
14517;DHT22;7344;50.864;4.362;2023-05-07T05:20:32;17.30;77.40
14517;DHT22;7344;50.864;4.362;2023-05-07T05:22:57;17.30;78.60
14517;DHT22;7344;50.864;4.362;2023-05-07T05:25:23;17.50;70.70
14517;DHT22;7344;50.864;4.362;2023-05-07T05:27:48;17.70;63.80
14517;DHT22;7344;50.864;4.362;2023-05-07T05:30:14;17.80;54.80
14517;DHT22;7344;50.864;4.362;2023-05-07T05:32:40;18.00;50.30
14517;DHT22;7344;50.864;4.362;2023-05-07T05:35:05;18.00;46.20
14517;DHT22;7344;50.864;4.362;2023-05-07T05:37:31;18.20;39.10
14517;DHT22;7344;50.864;4.362;2023-05-07T05:39:57;17.90;33.80
14517;DHT22;7344;50.864;4.362;2023-05-07T05:42:23;17.60;52.60
14517;DHT22;7344;50.864;4.362;2023-05-07T05:44:48;17.60;57.70
14517;DHT22;7344;50.864;4.362;2023-05-07T05:47:14;17.50;66.30
14517;DHT22;7344;50.864;4.362;2023-05-07T05:49:40;17.60;56.10
14517;DHT22;7344;50.864;4.362;2023-05-07T05:52:05;17.60;57.90
14517;DHT22;7344;50.864;4.362;2023-05-07T05:54:31;17.90;53.00
14517;DHT22;7344;50.864;4.362;2023-05-07T05:56:57;18.10;42.00
14517;DHT22;7344;50.864;4.362;2023-05-07T05:59:23;18.30;36.70
14517;DHT22;7344;50.864;4.362;2023-05-07T06:01:48;18.00;21.20
14517;DHT22;7344;50.864;4.362;2023-05-07T06:04:14;17.80;35.70
14517;DHT22;7344;50.864;4.362;2023-05-07T06:06:40;17.80;34.30
14517;DHT22;7344;50.864;4.362;2023-05-07T06:09:05;17.80;22.10
14517;DHT22;7344;50.864;4.362;2023-05-07T06:11:31;17.80;2.20
14517;DHT22;7344;50.864;4.362;2023-05-07T06:13:57;17.90;1.00
14517;DHT22;7344;50.864;4.362;2023-05-07T06:16:24;17.90;1.00
14517;DHT22;7344;50.864;4.362;2023-05-07T06:18:50;18.00;1.00
14517;DHT22;7344;50.864;4.362;2023-05-07T06:21:16;17.90;1.00
14517;DHT22;7344;50.864;4.362;2023-05-07T06:23:41;17.80;1.00
14517;DHT22;7344;50.864;4.362;2023-05-07T06:26:07;17.70;1.00
14517;DHT22;7344;50.864;4.362;2023-05-07T06:28:33;17.70;1.00
14517;DHT22;7344;50.864;4.362;2023-05-07T06:31:18;17.80;5.60
14517;DHT22;7344;50.864;4.362;2023-05-07T06:33:47;17.80;2.20
14517;DHT22;7344;50.864;4.362;2023-05-07T06:36:13;17.70;13.10
14517;DHT22;7344;50.864;4.362;2023-05-07T06:38:39;17.90;9.80
14517;DHT22;7344;50.864;4.362;2023-05-07T06:41:05;18.20;7.30
14517;DHT22;7344;50.864;4.362;2023-05-07T06:43:31;18.50;1.00
14517;DHT22;7344;50.864;4.362;2023-05-07T06:45:56;18.70;1.00
14517;DHT22;7344;50.864;4.362;2023-05-07T06:48:22;18.80;1.00
14517;DHT22;7344;50.864;4.362;2023-05-07T06:50:48;18.80;1.00
14517;DHT22;7344;50.864;4.362;2023-05-07T06:53:13;18.80;1.00
14517;DHT22;7344;50.864;4.362;2023-05-07T06:55:39;18.90;1.00
14517;DHT22;7344;50.864;4.362;2023-05-07T06:58:04;18.90;1.00
14517;DHT22;7344;50.864;4.362;2023-05-07T07:00:31;19.00;1.00
14517;DHT22;7344;50.864;4.362;2023-05-07T07:02:56;19.20;1.00
14517;DHT22;7344;50.864;4.362;2023-05-07T07:05:22;18.90;1.00
14517;DHT22;7344;50.864;4.362;2023-05-07T07:07:48;18.80;1.00
14517;DHT22;7344;50.864;4.362;2023-05-07T07:10:21;18.40;21.90
14517;DHT22;7344;50.864;4.362;2023-05-07T07:12:48;18.20;43.90
14517;DHT22;7344;50.864;4.362;2023-05-07T07:15:14;18.20;43.90
14517;DHT22;7344;50.864;4.362;2023-05-07T07:17:40;18.40;45.30
14517;DHT22;7344;50.864;4.362;2023-05-07T07:20:07;18.40;34.80
14517;DHT22;7344;50.864;4.362;2023-05-07T07:22:32;18.30;49.50
14517;DHT22;7344;50.864;4.362;2023-05-07T07:24:58;18.30;67.10
14517;DHT22;7344;50.864;4.362;2023-05-07T07:27:23;18.30;70.00
14517;DHT22;7344;50.864;4.362;2023-05-07T07:29:49;18.10;87.50
14517;DHT22;7344;50.864;4.362;2023-05-07T07:32:15;17.90;92.90
14517;DHT22;7344;50.864;4.362;2023-05-07T07:34:41;17.90;97.10
14517;DHT22;7344;50.864;4.362;2023-05-07T07:37:06;18.00;99.00
14517;DHT22;7344;50.864;4.362;2023-05-07T07:39:32;17.90;99.90
14517;DHT22;7344;50.864;4.362;2023-05-07T07:41:58;18.00;99.90
14517;DHT22;7344;50.864;4.362;2023-05-07T07:44:24;18.00;99.90
14517;DHT22;7344;50.864;4.362;2023-05-07T07:46:50;18.30;99.90
14517;DHT22;7344;50.864;4.362;2023-05-07T07:49:16;18.50;98.50
14517;DHT22;7344;50.864;4.362;2023-05-07T07:51:42;18.50;96.70
14517;DHT22;7344;50.864;4.362;2023-05-07T07:54:07;18.50;99.90
14517;DHT22;7344;50.864;4.362;2023-05-07T07:56:33;18.60;98.00
14517;DHT22;7344;50.864;4.362;2023-05-07T07:58:59;18.60;97.50
14517;DHT22;7344;50.864;4.362;2023-05-07T08:01:25;18.70;94.00
14517;DHT22;7344;50.864;4.362;2023-05-07T08:03:51;18.80;93.00
14517;DHT22;7344;50.864;4.362;2023-05-07T08:06:17;18.70;90.80
14517;DHT22;7344;50.864;4.362;2023-05-07T08:08:42;18.80;95.50
14517;DHT22;7344;50.864;4.362;2023-05-07T08:11:08;18.50;98.30
14517;DHT22;7344;50.864;4.362;2023-05-07T08:13:34;18.40;99.90
14517;DHT22;7344;50.864;4.362;2023-05-07T08:16:00;18.30;99.90
14517;DHT22;7344;50.864;4.362;2023-05-07T08:18:26;18.30;99.90
14517;DHT22;7344;50.864;4.362;2023-05-07T08:20:53;18.10;99.90
14517;DHT22;7344;50.864;4.362;2023-05-07T08:23:19;17.70;99.90
14517;DHT22;7344;50.864;4.362;2023-05-07T08:25:44;17.90;99.90
14517;DHT22;7344;50.864;4.362;2023-05-07T08:28:10;17.90;99.90
14517;DHT22;7344;50.864;4.362;2023-05-07T08:30:36;18.10;99.90
14517;DHT22;7344;50.864;4.362;2023-05-07T08:33:02;18.30;99.90
14517;DHT22;7344;50.864;4.362;2023-05-07T08:35:27;18.40;99.90
14517;DHT22;7344;50.864;4.362;2023-05-07T08:37:53;18.50;99.90
14517;DHT22;7344;50.864;4.362;2023-05-07T08:40:22;18.40;99.90
14517;DHT22;7344;50.864;4.362;2023-05-07T08:42:55;18.30;99.90
14517;DHT22;7344;50.864;4.362;2023-05-07T08:45:22;18.30;99.90
14517;DHT22;7344;50.864;4.362;2023-05-07T08:47:52;18.20;99.90
14517;DHT22;7344;50.864;4.362;2023-05-07T08:50:21;18.50;99.90
14517;DHT22;7344;50.864;4.362;2023-05-07T08:52:47;18.80;99.90
14517;DHT22;7344;50.864;4.362;2023-05-07T08:55:13;18.70;99.90
14517;DHT22;7344;50.864;4.362;2023-05-07T08:57:38;18.40;99.90
14517;DHT22;7344;50.864;4.362;2023-05-07T09:00:05;18.20;99.90
14517;DHT22;7344;50.864;4.362;2023-05-07T09:02:34;18.20;99.90
14517;DHT22;7344;50.864;4.362;2023-05-07T09:05:00;18.30;99.90
14517;DHT22;7344;50.864;4.362;2023-05-07T09:07:26;18.40;99.90
14517;DHT22;7344;50.864;4.362;2023-05-07T09:09:52;18.50;99.90
14517;DHT22;7344;50.864;4.362;2023-05-07T09:12:19;18.50;99.90
14517;DHT22;7344;50.864;4.362;2023-05-07T09:14:45;18.50;99.90
14517;DHT22;7344;50.864;4.362;2023-05-07T09:17:11;18.60;99.90
14517;DHT22;7344;50.864;4.362;2023-05-07T09:19:37;18.60;99.90
14517;DHT22;7344;50.864;4.362;2023-05-07T09:22:04;18.60;99.90
14517;DHT22;7344;50.864;4.362;2023-05-07T09:24:32;18.80;99.90
14517;DHT22;7344;50.864;4.362;2023-05-07T09:27:01;18.60;99.90
14517;DHT22;7344;50.864;4.362;2023-05-07T09:29:28;18.80;99.90
14517;DHT22;7344;50.864;4.362;2023-05-07T09:32:03;18.90;99.90
14517;DHT22;7344;50.864;4.362;2023-05-07T09:34:29;18.90;99.90
14517;DHT22;7344;50.864;4.362;2023-05-07T09:36:57;19.00;99.90
14517;DHT22;7344;50.864;4.362;2023-05-07T09:39:24;19.10;99.90
14517;DHT22;7344;50.864;4.362;2023-05-07T09:41:49;19.30;99.90
14517;DHT22;7344;50.864;4.362;2023-05-07T09:44:16;19.20;97.60
14517;DHT22;7344;50.864;4.362;2023-05-07T09:46:43;19.30;95.10
14517;DHT22;7344;50.864;4.362;2023-05-07T09:49:22;19.30;84.90
14517;DHT22;7344;50.864;4.362;2023-05-07T09:51:52;19.50;84.50
14517;DHT22;7344;50.864;4.362;2023-05-07T09:54:18;19.30;84.00
14517;DHT22;7344;50.864;4.362;2023-05-07T09:56:48;19.30;99.40
14517;DHT22;7344;50.864;4.362;2023-05-07T09:59:15;19.10;99.90
14517;DHT22;7344;50.864;4.362;2023-05-07T10:01:43;19.30;99.30
14517;DHT22;7344;50.864;4.362;2023-05-07T10:04:10;19.50;91.30
14517;DHT22;7344;50.864;4.362;2023-05-07T10:06:36;19.50;81.40
14517;DHT22;7344;50.864;4.362;2023-05-07T10:09:03;19.60;93.10
14517;DHT22;7344;50.864;4.362;2023-05-07T10:11:33;19.50;95.30
14517;DHT22;7344;50.864;4.362;2023-05-07T10:13:59;19.30;99.90
14517;DHT22;7344;50.864;4.362;2023-05-07T10:16:36;19.10;96.30
14517;DHT22;7344;50.864;4.362;2023-05-07T10:19:06;19.00;95.10
14517;DHT22;7344;50.864;4.362;2023-05-07T10:21:42;19.10;85.70
14517;DHT22;7344;50.864;4.362;2023-05-07T10:24:15;18.80;87.20
14517;DHT22;7344;50.864;4.362;2023-05-07T10:26:44;18.50;91.20
14517;DHT22;7344;50.864;4.362;2023-05-07T10:31:57;18.50;99.90
14517;DHT22;7344;50.864;4.362;2023-05-07T10:34:28;18.60;99.90
14517;DHT22;7344;50.864;4.362;2023-05-07T10:36:55;18.80;99.90
14517;DHT22;7344;50.864;4.362;2023-05-07T10:39:22;18.70;99.90
14517;DHT22;7344;50.864;4.362;2023-05-07T10:41:48;19.10;99.90
14517;DHT22;7344;50.864;4.362;2023-05-07T10:44:29;19.40;99.90
14517;DHT22;7344;50.864;4.362;2023-05-07T10:47:08;19.60;99.90
14517;DHT22;7344;50.864;4.362;2023-05-07T10:52:22;19.70;96.20
14517;DHT22;7344;50.864;4.362;2023-05-07T10:57:43;19.50;79.60
14517;DHT22;7344;50.864;4.362;2023-05-07T11:05:28;19.70;93.60
14517;DHT22;7344;50.864;4.362;2023-05-07T11:08:04;19.50;96.10
14517;DHT22;7344;50.864;4.362;2023-05-07T11:10:52;19.50;82.90
14517;DHT22;7344;50.864;4.362;2023-05-07T11:13:45;19.60;91.50
14517;DHT22;7344;50.864;4.362;2023-05-07T11:16:24;19.70;89.80
14517;DHT22;7344;50.864;4.362;2023-05-07T11:18:55;19.80;93.90
14517;DHT22;7344;50.864;4.362;2023-05-07T11:21:40;19.80;75.20
14517;DHT22;7344;50.864;4.362;2023-05-07T11:24:08;19.90;75.40
14517;DHT22;7344;50.864;4.362;2023-05-07T11:26:46;20.20;73.90
14517;DHT22;7344;50.864;4.362;2023-05-07T11:29:21;20.50;54.80
14517;DHT22;7344;50.864;4.362;2023-05-07T11:31:54;20.80;58.80
14517;DHT22;7344;50.864;4.362;2023-05-07T11:34:24;20.90;44.80
14517;DHT22;7344;50.864;4.362;2023-05-07T11:36:52;20.80;24.40
14517;DHT22;7344;50.864;4.362;2023-05-07T11:39:29;20.80;32.80
14517;DHT22;7344;50.864;4.362;2023-05-07T11:41:55;20.60;37.60
14517;DHT22;7344;50.864;4.362;2023-05-07T11:44:21;20.50;25.80
14517;DHT22;7344;50.864;4.362;2023-05-07T11:46:46;20.70;22.90
14517;DHT22;7344;50.864;4.362;2023-05-07T11:49:12;21.00;24.70
14517;DHT22;7344;50.864;4.362;2023-05-07T11:51:38;20.80;18.10
14517;DHT22;7344;50.864;4.362;2023-05-07T11:54:04;20.50;17.50
14517;DHT22;7344;50.864;4.362;2023-05-07T11:56:34;20.50;29.70
14517;DHT22;7344;50.864;4.362;2023-05-07T11:59:01;20.60;38.80
14517;DHT22;7344;50.864;4.362;2023-05-07T12:01:26;20.90;43.50
14517;DHT22;7344;50.864;4.362;2023-05-07T12:03:52;21.10;37.80
14517;DHT22;7344;50.864;4.362;2023-05-07T12:06:18;21.20;34.50
14517;DHT22;7344;50.864;4.362;2023-05-07T12:08:44;21.60;35.60
14517;DHT22;7344;50.864;4.362;2023-05-07T12:11:23;21.30;33.50
14517;DHT22;7344;50.864;4.362;2023-05-07T12:13:49;21.50;41.60
14517;DHT22;7344;50.864;4.362;2023-05-07T12:16:15;21.30;27.40
14517;DHT22;7344;50.864;4.362;2023-05-07T12:18:41;21.40;25.30
14517;DHT22;7344;50.864;4.362;2023-05-07T12:21:07;21.60;16.30
14517;DHT22;7344;50.864;4.362;2023-05-07T12:23:34;21.90;10.90
14517;DHT22;7344;50.864;4.362;2023-05-07T12:26:01;22.20;1.00
14517;DHT22;7344;50.864;4.362;2023-05-07T12:28:26;21.90;1.00
14517;DHT22;7344;50.864;4.362;2023-05-07T12:30:52;21.70;1.00
14517;DHT22;7344;50.864;4.362;2023-05-07T12:33:23;21.50;12.50
14517;DHT22;7344;50.864;4.362;2023-05-07T12:35:49;21.70;10.70
14517;DHT22;7344;50.864;4.362;2023-05-07T12:38:17;22.00;1.00
14517;DHT22;7344;50.864;4.362;2023-05-07T12:40:44;21.70;1.00
14517;DHT22;7344;50.864;4.362;2023-05-07T12:43:26;21.80;1.00
14517;DHT22;7344;50.864;4.362;2023-05-07T12:45:55;21.80;1.00
14517;DHT22;7344;50.864;4.362;2023-05-07T12:48:21;22.00;1.00
14517;DHT22;7344;50.864;4.362;2023-05-07T12:50:50;22.10;1.00
14517;DHT22;7344;50.864;4.362;2023-05-07T12:53:16;21.90;13.10
14517;DHT22;7344;50.864;4.362;2023-05-07T12:55:44;22.00;3.20
14517;DHT22;7344;50.864;4.362;2023-05-07T12:58:31;22.20;1.00
14517;DHT22;7344;50.864;4.362;2023-05-07T13:00:59;21.90;1.00
14517;DHT22;7344;50.864;4.362;2023-05-07T13:03:33;21.60;1.00
14517;DHT22;7344;50.864;4.362;2023-05-07T13:06:05;21.70;1.50
14517;DHT22;7344;50.864;4.362;2023-05-07T13:08:36;21.70;1.00
14517;DHT22;7344;50.864;4.362;2023-05-07T13:11:03;21.90;1.00
14517;DHT22;7344;50.864;4.362;2023-05-07T13:13:35;21.60;1.00
14517;DHT22;7344;50.864;4.362;2023-05-07T13:16:04;21.30;1.00
14517;DHT22;7344;50.864;4.362;2023-05-07T13:18:31;21.10;1.00
14517;DHT22;7344;50.864;4.362;2023-05-07T13:20:57;20.90;1.30
14517;DHT22;7344;50.864;4.362;2023-05-07T13:23:23;20.80;10.30
14517;DHT22;7344;50.864;4.362;2023-05-07T13:25:49;20.90;10.50
14517;DHT22;7344;50.864;4.362;2023-05-07T13:28:15;20.80;12.70
14517;DHT22;7344;50.864;4.362;2023-05-07T13:30:40;20.70;36.70
14517;DHT22;7344;50.864;4.362;2023-05-07T13:33:06;20.80;23.70
14517;DHT22;7344;50.864;4.362;2023-05-07T13:35:32;20.70;14.20
14517;DHT22;7344;50.864;4.362;2023-05-07T13:37:58;20.50;18.30
14517;DHT22;7344;50.864;4.362;2023-05-07T13:40:24;20.60;21.10
14517;DHT22;7344;50.864;4.362;2023-05-07T13:42:50;20.50;27.60
14517;DHT22;7344;50.864;4.362;2023-05-07T13:45:17;20.60;34.80
14517;DHT22;7344;50.864;4.362;2023-05-07T13:47:43;20.20;35.30
14517;DHT22;7344;50.864;4.362;2023-05-07T13:50:10;20.30;41.60
14517;DHT22;7344;50.864;4.362;2023-05-07T13:52:37;20.40;47.40
14517;DHT22;7344;50.864;4.362;2023-05-07T13:55:03;20.60;36.10
14517;DHT22;7344;50.864;4.362;2023-05-07T13:57:29;20.70;26.70
14517;DHT22;7344;50.864;4.362;2023-05-07T13:59:55;20.80;24.90
14517;DHT22;7344;50.864;4.362;2023-05-07T14:02:20;21.00;23.50
14517;DHT22;7344;50.864;4.362;2023-05-07T14:04:46;21.10;24.30
14517;DHT22;7344;50.864;4.362;2023-05-07T14:07:12;21.10;14.40
14517;DHT22;7344;50.864;4.362;2023-05-07T14:09:37;21.30;9.90
14517;DHT22;7344;50.864;4.362;2023-05-07T14:12:03;21.60;1.30
14517;DHT22;7344;50.864;4.362;2023-05-07T14:14:29;21.50;1.00
14517;DHT22;7344;50.864;4.362;2023-05-07T14:16:54;21.40;4.50
14517;DHT22;7344;50.864;4.362;2023-05-07T14:19:20;21.60;1.00
14517;DHT22;7344;50.864;4.362;2023-05-07T14:21:48;21.60;1.00
14517;DHT22;7344;50.864;4.362;2023-05-07T14:24:13;21.40;1.00
14517;DHT22;7344;50.864;4.362;2023-05-07T14:26:39;21.30;1.00
14517;DHT22;7344;50.864;4.362;2023-05-07T14:29:05;21.60;1.00
14517;DHT22;7344;50.864;4.362;2023-05-07T14:31:30;21.30;1.00
14517;DHT22;7344;50.864;4.362;2023-05-07T14:33:56;21.40;1.00
14517;DHT22;7344;50.864;4.362;2023-05-07T14:36:23;21.40;1.00
14517;DHT22;7344;50.864;4.362;2023-05-07T14:38:52;20.90;1.00
14517;DHT22;7344;50.864;4.362;2023-05-07T14:41:18;20.90;19.30
14517;DHT22;7344;50.864;4.362;2023-05-07T14:43:43;20.80;18.10
14517;DHT22;7344;50.864;4.362;2023-05-07T14:46:16;21.00;1.00
14517;DHT22;7344;50.864;4.362;2023-05-07T14:48:42;21.20;13.50
14517;DHT22;7344;50.864;4.362;2023-05-07T14:51:08;21.40;6.90
14517;DHT22;7344;50.864;4.362;2023-05-07T14:53:34;21.50;1.00
14517;DHT22;7344;50.864;4.362;2023-05-07T14:55:59;21.40;2.20
14517;DHT22;7344;50.864;4.362;2023-05-07T14:58:25;21.70;1.00
14517;DHT22;7344;50.864;4.362;2023-05-07T15:00:51;21.80;1.00
14517;DHT22;7344;50.864;4.362;2023-05-07T15:03:17;21.50;1.00
14517;DHT22;7344;50.864;4.362;2023-05-07T15:05:42;21.30;1.00
14517;DHT22;7344;50.864;4.362;2023-05-07T15:08:08;21.30;1.00
14517;DHT22;7344;50.864;4.362;2023-05-07T15:10:37;21.30;1.00
14517;DHT22;7344;50.864;4.362;2023-05-07T15:13:10;21.20;5.80
14517;DHT22;7344;50.864;4.362;2023-05-07T15:15:36;21.20;7.50
14517;DHT22;7344;50.864;4.362;2023-05-07T15:18:02;21.20;1.00
14517;DHT22;7344;50.864;4.362;2023-05-07T15:20:28;21.20;1.00
14517;DHT22;7344;50.864;4.362;2023-05-07T15:22:54;21.30;1.00
14517;DHT22;7344;50.864;4.362;2023-05-07T15:25:20;21.30;1.00
14517;DHT22;7344;50.864;4.362;2023-05-07T15:27:46;21.10;1.00
14517;DHT22;7344;50.864;4.362;2023-05-07T15:30:12;20.70;1.00
14517;DHT22;7344;50.864;4.362;2023-05-07T15:32:40;20.60;12.30
14517;DHT22;7344;50.864;4.362;2023-05-07T15:35:06;20.60;7.70
14517;DHT22;7344;50.864;4.362;2023-05-07T15:37:32;20.60;7.00
14517;DHT22;7344;50.864;4.362;2023-05-07T15:39:57;20.50;19.10
14517;DHT22;7344;50.864;4.362;2023-05-07T15:42:23;20.60;23.00
14517;DHT22;7344;50.864;4.362;2023-05-07T15:44:49;20.50;19.60
14517;DHT22;7344;50.864;4.362;2023-05-07T15:47:15;20.60;23.00
14517;DHT22;7344;50.864;4.362;2023-05-07T15:49:41;20.40;20.00
14517;DHT22;7344;50.864;4.362;2023-05-07T15:52:07;20.40;29.20
14517;DHT22;7344;50.864;4.362;2023-05-07T15:54:35;20.40;32.50
14517;DHT22;7344;50.864;4.362;2023-05-07T15:57:03;20.30;28.50
14517;DHT22;7344;50.864;4.362;2023-05-07T15:59:29;20.30;29.10
14517;DHT22;7344;50.864;4.362;2023-05-07T16:01:54;20.20;30.10